createdAt,value
2018-09-19T00:00:46.336Z,13.53
2018-09-19T00:03:16.071Z,13.80
2018-09-19T00:05:46.075Z,12.80
2018-09-19T00:08:17.702Z,13.00
2018-09-19T00:10:49.103Z,14.20
2018-09-19T00:13:20.641Z,14.17
2018-09-19T00:15:50.360Z,13.40
2018-09-19T00:18:20.249Z,14.00
2018-09-19T00:20:50.234Z,13.03
2018-09-19T00:23:20.274Z,13.30
2018-09-19T00:25:50.207Z,14.00
2018-09-19T00:28:20.024Z,13.63
2018-09-19T00:30:50.213Z,13.43
2018-09-19T00:33:20.047Z,13.90
2018-09-19T00:35:50.016Z,13.67
2018-09-19T00:38:20.143Z,13.27
2018-09-19T00:40:50.237Z,13.23
2018-09-19T00:43:21.168Z,13.43
2018-09-19T00:45:51.504Z,12.83
2018-09-19T00:48:21.937Z,13.30
2018-09-19T00:50:53.927Z,13.20
2018-09-19T00:53:24.986Z,13.67
2018-09-19T00:55:56.071Z,14.47
2018-09-19T00:58:26.788Z,12.63
2018-09-19T01:00:58.867Z,12.77
2018-09-19T01:03:28.937Z,13.73
2018-09-19T01:05:58.843Z,13.43
2018-09-19T01:08:28.948Z,13.30
2018-09-19T01:10:58.927Z,13.90
2018-09-19T01:13:29.027Z,13.63
2018-09-19T01:15:59.027Z,14.07
2018-09-19T01:18:29.039Z,13.37
2018-09-19T01:20:59.060Z,13.77
2018-09-19T01:23:28.788Z,14.17
2018-09-19T01:25:58.844Z,14.13
2018-09-19T01:28:29.428Z,13.53
2018-09-19T01:30:59.442Z,14.60
2018-09-19T01:33:29.469Z,13.93
2018-09-19T01:35:59.489Z,14.00
2018-09-19T01:38:29.553Z,13.03
2018-09-19T01:40:59.595Z,13.63
2018-09-19T01:43:29.622Z,14.13
2018-09-19T01:45:59.682Z,13.80
2018-09-19T01:48:29.865Z,13.43
2018-09-19T01:50:59.672Z,13.73
2018-09-19T01:53:29.463Z,14.37
2018-09-19T01:55:59.647Z,13.80
2018-09-19T01:58:29.615Z,13.77
2018-09-19T02:00:59.558Z,12.97
2018-09-19T02:03:29.718Z,13.80
2018-09-19T02:05:59.466Z,13.47
2018-09-19T02:08:29.969Z,13.77
2018-09-19T02:11:00.082Z,13.00
2018-09-19T02:13:30.414Z,13.63
2018-09-19T02:16:00.195Z,13.20
2018-09-19T02:18:30.442Z,14.87
2018-09-19T02:21:00.485Z,13.37
2018-09-19T02:23:30.662Z,14.17
2018-09-19T02:26:00.646Z,14.57
2018-09-19T02:28:31.114Z,14.77
2018-09-19T02:31:00.921Z,14.00
2018-09-19T02:33:31.244Z,14.20
2018-09-19T02:36:01.839Z,13.90
2018-09-19T02:38:33.008Z,14.30
2018-09-19T02:41:03.500Z,14.20
2018-09-19T02:43:33.827Z,15.57
2018-09-19T02:46:04.186Z,14.07
2018-09-19T02:48:34.982Z,14.90
2018-09-19T02:51:05.854Z,15.00
2018-09-19T02:53:37.061Z,15.17
2018-09-19T02:56:07.502Z,15.80
2018-09-19T02:58:37.972Z,15.10
2018-09-19T03:01:08.543Z,14.67
2018-09-19T03:03:38.762Z,15.07
2018-09-19T03:06:09.016Z,13.73
2018-09-19T03:08:39.290Z,14.70
2018-09-19T03:11:09.638Z,15.20
2018-09-19T03:13:40.235Z,13.73
2018-09-19T03:16:10.633Z,14.23
2018-09-19T03:18:41.145Z,13.50
2018-09-19T03:21:12.662Z,13.10
2018-09-19T03:23:43.320Z,14.47
2018-09-19T03:26:13.772Z,12.70
2018-09-19T03:28:44.755Z,14.23
2018-09-19T03:31:15.984Z,13.80
2018-09-19T03:33:47.867Z,13.43
2018-09-19T03:36:19.133Z,13.60
2018-09-19T03:38:50.300Z,13.87
2018-09-19T03:41:20.632Z,15.73
2018-09-19T03:43:52.352Z,13.53
2018-09-19T03:46:23.723Z,14.20
2018-09-19T03:48:54.443Z,13.80
2018-09-19T03:51:25.758Z,14.00
2018-09-19T03:53:56.323Z,14.50
2018-09-19T03:56:26.659Z,14.17
2018-09-19T03:58:57.694Z,15.90
2018-09-19T04:01:28.366Z,15.03
2018-09-19T04:03:58.971Z,15.57
2018-09-19T04:06:29.254Z,16.50
2018-09-19T04:08:59.781Z,16.13
2018-09-19T04:11:30.880Z,16.00
2018-09-19T04:14:02.049Z,16.00
2018-09-19T04:16:32.551Z,16.57
2018-09-19T04:19:03.118Z,17.50
2018-09-19T04:21:34.669Z,16.20
2018-09-19T04:24:05.511Z,16.73
2018-09-19T04:26:35.969Z,16.43
2018-09-19T04:29:07.265Z,17.23
2018-09-19T04:31:39.440Z,16.67
2018-09-19T04:34:09.658Z,15.53
2018-09-19T04:36:40.437Z,17.90
2018-09-19T04:39:12.430Z,17.07
2018-09-19T04:41:42.695Z,16.70
2018-09-19T04:44:13.021Z,16.00
2018-09-19T04:46:43.411Z,16.10
2018-09-19T04:49:14.423Z,16.40
2018-09-19T04:51:45.506Z,16.20
2018-09-19T04:54:16.254Z,16.47
2018-09-19T04:56:46.766Z,16.50
2018-09-19T04:59:17.374Z,15.57
2018-09-19T05:01:47.726Z,14.47
2018-09-19T05:04:17.879Z,15.20
2018-09-19T05:06:48.062Z,16.13
2018-09-19T05:09:18.095Z,14.27
2018-09-19T05:11:49.267Z,16.33
2018-09-19T05:14:20.710Z,14.87
2018-09-19T05:16:50.990Z,13.00
2018-09-19T05:19:22.048Z,15.37
2018-09-19T05:21:52.721Z,17.10
2018-09-19T05:24:23.264Z,15.90
2018-09-19T05:26:54.958Z,16.13
2018-09-19T05:29:26.876Z,14.80
2018-09-19T05:31:57.843Z,14.30
2018-09-19T05:34:28.949Z,14.00
2018-09-19T05:37:00.064Z,15.40
2018-09-19T05:39:31.645Z,15.00
2018-09-19T05:42:02.020Z,15.03
2018-09-19T05:44:33.268Z,16.93
2018-09-19T05:47:04.748Z,16.70
2018-09-19T05:49:35.581Z,16.10
2018-09-19T05:52:06.467Z,13.90
2018-09-19T05:54:37.248Z,16.77
2018-09-19T05:57:08.152Z,14.93
2018-09-19T05:59:39.026Z,14.30
2018-09-19T06:02:09.533Z,16.27
2018-09-19T06:04:40.348Z,15.10
2018-09-19T06:07:11.541Z,15.37
2018-09-19T06:09:42.801Z,15.07
2018-09-19T06:12:13.442Z,15.00
2018-09-19T06:14:44.632Z,13.90
2018-09-19T06:17:15.400Z,14.07
2018-09-19T06:19:46.105Z,14.70
2018-09-19T06:22:16.250Z,15.90
2018-09-19T06:24:46.753Z,17.10
2018-09-19T06:27:17.484Z,16.37
2018-09-19T06:29:48.049Z,17.20
2018-09-19T06:32:19.008Z,15.57
2018-09-19T06:34:50.346Z,17.70
2018-09-19T06:37:20.609Z,17.37
2018-09-19T06:39:51.136Z,16.17
2018-09-19T06:42:23.226Z,18.07
2018-09-19T06:44:55.089Z,19.63
2018-09-19T06:47:25.564Z,16.60
2018-09-19T06:49:56.917Z,15.80
2018-09-19T06:52:27.283Z,15.13
2018-09-19T06:54:57.663Z,15.40
2018-09-19T06:57:28.199Z,14.33
2018-09-19T06:59:58.325Z,14.47
2018-09-19T07:02:29.163Z,14.43
2018-09-19T07:05:00.200Z,13.10
2018-09-19T07:07:30.765Z,14.03
2018-09-19T07:10:01.474Z,13.30
2018-09-19T07:12:31.771Z,14.30
2018-09-19T07:15:02.966Z,13.30
2018-09-19T07:17:33.987Z,13.10
2018-09-19T07:20:05.803Z,13.60
2018-09-19T07:22:37.205Z,13.50
2018-09-19T07:25:07.653Z,13.53
2018-09-19T07:27:38.075Z,13.53
2018-09-19T07:30:08.996Z,13.70
2018-09-19T07:32:39.491Z,14.70
2018-09-19T07:35:10.113Z,12.87
2018-09-19T07:37:41.499Z,13.60
2018-09-19T07:40:12.119Z,12.97
2018-09-19T07:42:42.565Z,14.20
2018-09-19T07:45:12.731Z,12.70
2018-09-19T07:47:43.410Z,14.13
2018-09-19T07:50:13.561Z,13.83
2018-09-19T07:52:45.526Z,12.07
2018-09-19T07:55:16.962Z,13.20
2018-09-19T07:57:48.422Z,11.97
2018-09-19T08:00:19.407Z,12.43
2018-09-19T08:02:49.811Z,12.67
2018-09-19T08:05:20.791Z,13.90
2018-09-19T08:07:51.510Z,12.93
2018-09-19T08:10:22.485Z,12.73
2018-09-19T08:12:53.272Z,12.50
2018-09-19T08:15:24.336Z,12.82
2018-09-19T08:17:55.322Z,12.20
2018-09-19T08:20:26.032Z,12.53
2018-09-19T08:22:59.312Z,12.15
2018-09-19T08:25:30.549Z,12.75
2018-09-19T08:28:01.586Z,13.72
2018-09-19T08:30:33.087Z,13.30
2018-09-19T08:33:04.477Z,13.65
2018-09-19T08:35:35.338Z,13.50
2018-09-19T08:38:06.799Z,12.73
2018-09-19T08:40:38.022Z,14.05
2018-09-19T08:43:08.921Z,12.85
2018-09-19T08:45:40.308Z,12.53
2018-09-19T08:48:10.709Z,12.68
2018-09-19T08:50:41.651Z,12.47
2018-09-19T08:53:13.590Z,13.58
2018-09-19T08:55:44.264Z,13.62
2018-09-19T08:58:15.676Z,13.85
2018-09-19T09:00:46.455Z,13.45
2018-09-19T09:03:19.204Z,14.43
2018-09-19T09:05:49.923Z,13.88
2018-09-19T09:08:21.537Z,15.15
2018-09-19T09:10:52.909Z,14.75
2018-09-19T09:13:24.183Z,14.07
2018-09-19T09:15:55.337Z,13.38
2018-09-19T09:18:27.026Z,12.93
2018-09-19T09:20:57.250Z,12.28
2018-09-19T09:23:28.350Z,13.45
2018-09-19T09:25:59.569Z,14.18
2018-09-19T09:28:30.474Z,13.48
2018-09-19T09:31:01.854Z,13.48
2018-09-19T09:33:32.828Z,13.48
2018-09-19T09:36:03.329Z,13.95
2018-09-19T09:38:34.008Z,13.70
2018-09-19T09:41:04.988Z,13.60
2018-09-19T09:43:35.762Z,14.13
2018-09-19T09:46:06.507Z,15.50
2018-09-19T09:48:37.386Z,14.25
2018-09-19T09:51:08.580Z,15.35
2018-09-19T09:53:39.561Z,14.20
2018-09-19T09:56:11.343Z,12.75
2018-09-19T09:58:42.237Z,12.98
2018-09-19T10:01:12.830Z,14.05
2018-09-19T10:03:43.817Z,13.40
2018-09-19T10:06:14.907Z,12.15
2018-09-19T10:08:46.548Z,13.58
2018-09-19T10:11:16.912Z,14.03
2018-09-19T10:13:47.099Z,13.95
2018-09-19T10:16:17.307Z,13.30
2018-09-19T10:18:48.126Z,15.28
2018-09-19T10:21:19.997Z,13.80
2018-09-19T10:23:52.072Z,14.90
2018-09-19T10:26:23.178Z,15.72
2018-09-19T10:28:53.660Z,14.03
2018-09-19T10:31:24.788Z,14.65
2018-09-19T10:33:55.704Z,12.82
2018-09-19T10:36:26.401Z,14.03
2018-09-19T10:38:56.828Z,13.85
2018-09-19T10:41:27.626Z,14.15
2018-09-19T10:43:58.552Z,13.03
2018-09-19T10:46:29.439Z,12.47
2018-09-19T10:48:59.516Z,13.50
2018-09-19T10:51:30.077Z,12.37
2018-09-19T10:54:00.827Z,13.18
2018-09-19T10:56:31.759Z,12.05
2018-09-19T10:59:03.362Z,12.75
2018-09-19T11:01:33.422Z,12.80
2018-09-19T11:04:05.220Z,11.90
2018-09-19T11:06:35.286Z,12.73
2018-09-19T11:09:07.083Z,12.43
2018-09-19T11:11:38.146Z,12.82
2018-09-19T11:14:08.415Z,12.45
2018-09-19T11:16:38.453Z,12.05
2018-09-19T11:19:08.794Z,10.93
2018-09-19T11:21:39.818Z,11.30
2018-09-19T11:24:10.672Z,11.35
2018-09-19T11:26:41.106Z,11.40
2018-09-19T11:29:12.379Z,11.63
2018-09-19T11:31:42.734Z,11.83
2018-09-19T11:34:14.027Z,12.70
2018-09-19T11:36:45.132Z,12.35
2018-09-19T11:39:16.600Z,11.45
2018-09-19T11:41:47.659Z,12.47
2018-09-19T11:44:18.746Z,11.97
2018-09-19T11:46:50.295Z,12.73
2018-09-19T11:49:20.447Z,12.93
2018-09-19T11:51:51.120Z,12.68
2018-09-19T11:54:21.877Z,12.60
2018-09-19T11:56:52.904Z,12.75
2018-09-19T11:59:25.443Z,12.37
2018-09-19T12:01:56.340Z,13.03
2018-09-19T12:04:26.786Z,12.45
2018-09-19T12:06:57.847Z,12.82
2018-09-19T12:09:29.424Z,13.18
2018-09-19T12:12:00.072Z,12.37
2018-09-19T12:14:31.397Z,13.13
2018-09-19T12:17:02.640Z,12.90
2018-09-19T12:19:33.630Z,12.30
2018-09-19T12:22:04.182Z,12.20
2018-09-19T12:24:35.436Z,11.53
2018-09-19T12:27:07.076Z,11.70
2018-09-19T12:29:38.399Z,13.80
2018-09-19T12:32:10.761Z,12.40
2018-09-19T12:34:41.821Z,13.25
2018-09-19T12:37:11.939Z,13.48
2018-09-19T12:39:42.288Z,13.28
2018-09-19T12:42:12.889Z,11.65
2018-09-19T12:44:43.991Z,11.90
2018-09-19T12:47:14.182Z,12.30
2018-09-19T12:49:45.070Z,13.00
2018-09-19T12:52:15.544Z,14.45
2018-09-19T12:54:46.436Z,12.53
2018-09-19T12:57:16.757Z,13.35
2018-09-19T12:59:47.274Z,13.10
2018-09-19T13:02:17.994Z,12.10
2018-09-19T13:04:48.363Z,12.73
2018-09-19T13:07:18.604Z,13.60
2018-09-19T13:09:49.105Z,13.68
2018-09-19T13:12:19.724Z,13.22
2018-09-19T13:14:51.482Z,12.63
2018-09-19T13:17:22.392Z,13.45
2018-09-19T13:19:53.360Z,12.63
2018-09-19T13:22:24.021Z,13.18
2018-09-19T13:24:55.402Z,12.47
2018-09-19T13:27:26.779Z,11.55
2018-09-19T13:29:57.261Z,12.85
2018-09-19T13:32:27.788Z,12.93
2018-09-19T13:34:59.026Z,12.23
2018-09-19T13:37:30.007Z,12.28
2018-09-19T13:40:00.348Z,12.40
2018-09-19T13:42:30.750Z,11.57
2018-09-19T13:45:01.025Z,13.25
2018-09-19T13:47:31.933Z,13.40
2018-09-19T13:50:45.099Z,12.10
2018-09-19T13:53:16.260Z,11.95
2018-09-19T13:55:46.886Z,12.13
2018-09-19T13:58:17.039Z,13.50
2018-09-19T14:00:47.678Z,13.38
2018-09-19T14:03:18.358Z,13.18
2018-09-19T14:05:49.583Z,12.90
2018-09-19T14:08:20.674Z,13.78
2018-09-19T14:10:51.824Z,15.70
2018-09-19T14:13:22.556Z,12.53
2018-09-19T14:15:53.926Z,11.85
2018-09-19T14:18:24.669Z,12.50
2018-09-19T14:20:55.550Z,13.50
2018-09-19T14:23:26.111Z,12.55
2018-09-19T14:25:56.414Z,13.40
2018-09-19T14:28:27.522Z,12.33
2018-09-19T14:30:58.178Z,16.62
2018-09-19T14:33:29.612Z,12.90
2018-09-19T14:36:00.565Z,12.98
2018-09-19T14:38:31.781Z,13.22
2018-09-19T14:41:02.993Z,14.43
2018-09-19T14:43:34.238Z,13.45
2018-09-19T14:46:05.309Z,13.98
2018-09-19T14:48:36.259Z,13.43
2018-09-19T14:51:07.247Z,14.70
2018-09-19T14:53:38.046Z,14.20
2018-09-19T14:56:08.467Z,14.87
2018-09-19T14:58:39.826Z,14.20
2018-09-19T15:01:10.542Z,13.90
2018-09-19T15:03:40.868Z,12.50
2018-09-19T15:06:11.704Z,13.30
2018-09-19T15:08:41.942Z,13.67
2018-09-19T15:11:12.972Z,14.30
2018-09-19T15:13:44.470Z,13.33
2018-09-19T15:16:16.125Z,15.20
2018-09-19T15:18:48.118Z,14.63
2018-09-19T15:21:19.156Z,13.70
2018-09-19T15:23:50.495Z,15.30
2018-09-19T15:26:21.432Z,15.30
2018-09-19T15:28:51.901Z,14.07
2018-09-19T15:31:22.721Z,15.67
2018-09-19T15:33:53.306Z,14.30
2018-09-19T15:36:23.989Z,13.97
2018-09-19T15:38:55.396Z,13.90
2018-09-19T15:41:26.984Z,14.60
2018-09-19T15:43:58.524Z,14.20
2018-09-19T15:46:29.122Z,14.00
2018-09-19T15:48:59.664Z,14.90
2018-09-19T15:51:30.682Z,16.93
2018-09-19T15:54:01.717Z,15.70
2018-09-19T15:56:32.972Z,16.03
2018-09-19T15:59:04.284Z,16.87
2018-09-19T16:01:35.392Z,16.13
2018-09-19T16:04:07.085Z,15.40
2018-09-19T16:06:37.589Z,15.50
2018-09-19T16:09:11.145Z,15.83
2018-09-19T16:11:46.372Z,16.37
2018-09-19T16:14:17.410Z,13.80
2018-09-19T16:16:48.050Z,14.57
2018-09-19T16:19:18.756Z,14.80
2018-09-19T16:21:49.681Z,14.93
2018-09-19T16:24:20.557Z,14.37
2018-09-19T16:26:50.966Z,14.87
2018-09-19T16:29:21.337Z,14.37
2018-09-19T16:31:51.867Z,15.50
2018-09-19T16:34:22.193Z,14.53
2018-09-19T16:36:52.777Z,14.60
2018-09-19T16:39:23.672Z,16.20
2018-09-19T16:41:54.666Z,14.40
2018-09-19T16:44:25.971Z,16.93
2018-09-19T16:46:57.620Z,16.50
2018-09-19T16:49:28.813Z,16.30
2018-09-19T16:51:59.870Z,17.33
2018-09-19T16:54:31.202Z,15.40
2018-09-19T16:57:03.202Z,14.53
2018-09-19T16:59:34.380Z,15.03
2018-09-19T17:02:05.259Z,14.80
2018-09-19T17:04:35.908Z,16.10
2018-09-19T17:07:06.553Z,15.40
2018-09-19T17:09:37.620Z,37.20
2018-09-19T17:12:08.324Z,27.03
2018-09-19T17:14:39.748Z,17.70
2018-09-19T17:17:10.787Z,17.33
2018-09-19T17:19:41.785Z,16.37
2018-09-19T17:22:13.188Z,15.50
2018-09-19T17:24:43.834Z,16.80
2018-09-19T17:27:15.059Z,16.10
2018-09-19T17:29:46.062Z,16.00
2018-09-19T17:32:17.363Z,16.50
2018-09-19T17:34:48.629Z,17.57
2018-09-19T17:37:19.515Z,16.47
2018-09-19T17:39:51.120Z,18.40
2018-09-19T17:42:22.124Z,18.00
2018-09-19T17:44:52.672Z,17.70
2018-09-19T17:47:23.160Z,17.00
2018-09-19T17:49:53.622Z,16.77
2018-09-19T17:52:24.099Z,16.50
2018-09-19T17:54:54.630Z,17.57
2018-09-19T17:57:25.309Z,17.33
2018-09-19T17:59:56.823Z,17.03
2018-09-19T18:02:27.906Z,17.83
2018-09-19T18:04:58.873Z,20.33
2018-09-19T18:07:29.985Z,20.00
2018-09-19T18:10:00.604Z,19.50
2018-09-19T18:12:31.249Z,20.57
2018-09-19T18:15:02.499Z,21.37
2018-09-19T18:17:33.872Z,22.27
2018-09-19T18:20:04.628Z,21.27
2018-09-19T18:22:35.543Z,20.70
2018-09-19T18:25:06.244Z,24.00
2018-09-19T18:27:36.975Z,21.73
2018-09-19T18:30:08.605Z,19.70
2018-09-19T18:32:39.348Z,21.13
2018-09-19T18:35:10.377Z,18.50
2018-09-19T18:37:41.148Z,20.17
2018-09-19T18:40:12.200Z,20.10
2018-09-19T18:42:43.664Z,19.80
2018-09-19T18:45:14.709Z,19.63
2018-09-19T18:47:46.260Z,23.50
2018-09-19T18:50:17.069Z,20.60
2018-09-19T18:52:47.803Z,20.80
2018-09-19T18:55:20.154Z,22.27
2018-09-19T18:57:50.837Z,22.10
2018-09-19T19:00:22.964Z,22.93
2018-09-19T19:02:55.385Z,21.47
2018-09-19T19:05:27.349Z,20.60
2018-09-19T19:07:59.765Z,21.90
2018-09-19T19:10:33.403Z,23.00
2018-09-19T19:13:05.421Z,21.90
2018-09-19T19:15:37.630Z,21.53
2018-09-19T19:18:10.336Z,20.47
2018-09-19T19:20:43.577Z,23.07
2018-09-19T19:23:16.176Z,20.70
2018-09-19T19:25:48.661Z,24.07
2018-09-19T19:28:19.908Z,22.30
2018-09-19T19:30:52.151Z,23.50
2018-09-19T19:33:23.252Z,25.20
2018-09-19T19:35:54.854Z,26.13
2018-09-19T19:38:26.852Z,23.67
2018-09-19T19:40:58.395Z,23.60
2018-09-19T19:43:29.831Z,23.27
2018-09-19T19:46:00.784Z,23.80
2018-09-19T19:48:32.186Z,22.33
2018-09-19T19:51:04.302Z,24.17
2018-09-19T19:53:36.418Z,25.50
2018-09-19T19:56:08.715Z,22.70
2018-09-19T19:58:41.146Z,21.47
2018-09-19T20:01:12.331Z,22.53
2018-09-19T20:03:44.118Z,22.10
2018-09-19T20:06:15.468Z,22.90
2018-09-19T20:08:47.477Z,23.37
2018-09-19T20:11:18.600Z,22.37
2018-09-19T20:13:49.871Z,21.97
2018-09-19T20:16:20.914Z,23.37
2018-09-19T20:18:51.968Z,21.20
2018-09-19T20:21:23.708Z,21.97
2018-09-19T20:23:55.027Z,22.40
2018-09-19T20:26:25.867Z,21.70
2018-09-19T20:28:57.593Z,20.57
2018-09-19T20:31:28.329Z,20.00
2018-09-19T20:33:58.957Z,22.13
2018-09-19T20:36:29.677Z,22.33
2018-09-19T20:39:00.309Z,24.43
2018-09-19T20:41:31.345Z,22.37
2018-09-19T20:44:01.916Z,22.20
2018-09-19T20:46:32.983Z,23.13
2018-09-19T20:49:03.753Z,21.80
2018-09-19T20:51:34.310Z,21.43
2018-09-19T20:54:06.757Z,22.47
2018-09-19T20:56:37.382Z,24.17
2018-09-19T20:59:08.566Z,22.20
2018-09-19T21:01:39.862Z,24.10
2018-09-19T21:04:11.233Z,22.60
2018-09-19T21:06:42.682Z,22.60
2018-09-19T21:09:14.368Z,22.67
2018-09-19T21:11:45.989Z,22.17
2018-09-19T21:14:16.708Z,21.27
2018-09-19T21:16:47.657Z,23.00
2018-09-19T21:19:18.543Z,22.67
2018-09-19T21:21:49.616Z,21.17
2018-09-19T21:24:20.468Z,22.30
2018-09-19T21:26:52.847Z,21.40
2018-09-19T21:29:23.643Z,22.47
2018-09-19T21:31:54.440Z,22.70
2018-09-19T21:34:24.988Z,22.37
2018-09-19T21:36:55.641Z,23.70
2018-09-19T21:39:26.356Z,24.33
2018-09-19T21:41:57.371Z,22.50
2018-09-19T21:44:28.705Z,25.43
2018-09-19T21:46:59.353Z,24.10
2018-09-19T21:49:30.861Z,24.60
2018-09-19T21:52:02.129Z,23.20
2018-09-19T21:54:32.692Z,23.97
2018-09-19T21:57:03.693Z,21.63
2018-09-19T21:59:34.504Z,23.67
2018-09-19T22:02:04.493Z,21.67
2018-09-19T22:04:35.067Z,21.00
2018-09-19T22:07:06.599Z,21.47
2018-09-19T22:09:37.699Z,22.83
2018-09-19T22:12:11.180Z,21.47
2018-09-19T22:14:44.939Z,21.00
2018-09-19T22:17:16.346Z,21.10
2018-09-19T22:19:47.180Z,21.20
2018-09-19T22:22:18.465Z,23.47
2018-09-19T22:24:49.463Z,20.93
2018-09-19T22:27:20.350Z,21.80
2018-09-19T22:29:51.735Z,20.20
2018-09-19T22:32:22.561Z,20.87
2018-09-19T22:34:53.322Z,21.53
2018-09-19T22:37:24.334Z,22.60
2018-09-19T22:39:55.761Z,22.57
2018-09-19T22:42:26.722Z,22.10
2018-09-19T22:44:58.319Z,19.57
2018-09-19T22:47:30.001Z,19.33
2018-09-19T22:50:00.446Z,20.00
2018-09-19T22:52:31.222Z,21.67
2018-09-19T22:55:02.234Z,21.80
2018-09-19T22:57:32.824Z,21.10
2018-09-19T23:00:03.344Z,20.40
2018-09-19T23:02:33.541Z,20.80
2018-09-19T23:05:04.544Z,21.80
2018-09-19T23:07:34.819Z,21.13
2018-09-19T23:10:06.608Z,20.87
2018-09-19T23:12:37.516Z,21.40
2018-09-19T23:15:08.938Z,20.07
2018-09-19T23:17:39.542Z,20.87
2018-09-19T23:20:10.051Z,20.27
2018-09-19T23:22:41.425Z,21.83
2018-09-19T23:25:12.544Z,20.67
2018-09-19T23:27:43.307Z,21.17
2018-09-19T23:30:13.841Z,20.67
2018-09-19T23:32:45.215Z,21.67
2018-09-19T23:35:17.137Z,20.23
2018-09-19T23:37:48.426Z,21.10
2018-09-19T23:40:19.172Z,21.07
2018-09-19T23:42:50.302Z,20.40
2018-09-19T23:45:20.793Z,22.00
2018-09-19T23:47:51.437Z,22.50
2018-09-19T23:50:22.302Z,21.67
2018-09-19T23:52:54.307Z,21.50
2018-09-19T23:55:25.561Z,20.90
2018-09-19T23:57:57.001Z,20.40
